sensor_id;sensor_type;location;lat;lon;timestamp;P1;durP1;ratioP1;P2;durP2;ratioP2
69185;SDS011;56298;49.246;9.410;2024-02-16T00:00:46;9.10;;;3.37;;
69185;SDS011;56298;49.246;9.410;2024-02-16T00:03:12;8.27;;;3.33;;
69185;SDS011;56298;49.246;9.410;2024-02-16T00:05:37;6.57;;;3.00;;
69185;SDS011;56298;49.246;9.410;2024-02-16T00:08:03;7.77;;;3.00;;
69185;SDS011;56298;49.246;9.410;2024-02-16T00:10:28;6.47;;;2.97;;
69185;SDS011;56298;49.246;9.410;2024-02-16T00:12:54;6.93;;;3.00;;
69185;SDS011;56298;49.246;9.410;2024-02-16T00:15:19;8.43;;;3.00;;
69185;SDS011;56298;49.246;9.410;2024-02-16T00:17:44;7.53;;;3.00;;
69185;SDS011;56298;49.246;9.410;2024-02-16T00:20:10;8.80;;;2.97;;
69185;SDS011;56298;49.246;9.410;2024-02-16T00:22:37;8.52;;;2.95;;
69185;SDS011;56298;49.246;9.410;2024-02-16T00:25:03;7.27;;;3.20;;
69185;SDS011;56298;49.246;9.410;2024-02-16T00:27:28;7.40;;;3.47;;
69185;SDS011;56298;49.246;9.410;2024-02-16T00:29:54;7.43;;;3.13;;
69185;SDS011;56298;49.246;9.410;2024-02-16T00:32:19;6.03;;;2.97;;
69185;SDS011;56298;49.246;9.410;2024-02-16T00:34:44;8.53;;;3.20;;
69185;SDS011;56298;49.246;9.410;2024-02-16T00:37:10;6.17;;;2.83;;
69185;SDS011;56298;49.246;9.410;2024-02-16T00:39:37;7.17;;;3.00;;
69185;SDS011;56298;49.246;9.410;2024-02-16T00:42:05;8.68;;;3.47;;
69185;SDS011;56298;49.246;9.410;2024-02-16T00:44:30;9.27;;;3.05;;
69185;SDS011;56298;49.246;9.410;2024-02-16T00:46:56;7.20;;;2.95;;
69185;SDS011;56298;49.246;9.410;2024-02-16T00:49:21;9.37;;;3.10;;
69185;SDS011;56298;49.246;9.410;2024-02-16T00:51:47;6.95;;;3.33;;
69185;SDS011;56298;49.246;9.410;2024-02-16T00:54:12;6.93;;;2.90;;
69185;SDS011;56298;49.246;9.410;2024-02-16T00:56:38;7.88;;;3.10;;
69185;SDS011;56298;49.246;9.410;2024-02-16T00:59:03;7.40;;;3.03;;
69185;SDS011;56298;49.246;9.410;2024-02-16T01:01:29;6.70;;;3.07;;
69185;SDS011;56298;49.246;9.410;2024-02-16T01:03:54;6.73;;;2.80;;
69185;SDS011;56298;49.246;9.410;2024-02-16T01:06:19;8.83;;;3.00;;
69185;SDS011;56298;49.246;9.410;2024-02-16T01:08:45;8.17;;;3.30;;
69185;SDS011;56298;49.246;9.410;2024-02-16T01:11:11;7.22;;;3.22;;
69185;SDS011;56298;49.246;9.410;2024-02-16T01:13:37;7.90;;;3.10;;
69185;SDS011;56298;49.246;9.410;2024-02-16T01:16:02;7.87;;;3.17;;
69185;SDS011;56298;49.246;9.410;2024-02-16T01:18:28;10.27;;;2.97;;
69185;SDS011;56298;49.246;9.410;2024-02-16T01:20:54;7.22;;;3.13;;
69185;SDS011;56298;49.246;9.410;2024-02-16T01:23:20;7.47;;;2.97;;
69185;SDS011;56298;49.246;9.410;2024-02-16T01:25:45;7.40;;;3.03;;
69185;SDS011;56298;49.246;9.410;2024-02-16T01:28:11;6.53;;;2.95;;
69185;SDS011;56298;49.246;9.410;2024-02-16T01:30:37;8.37;;;3.00;;
69185;SDS011;56298;49.246;9.410;2024-02-16T01:33:02;7.60;;;2.92;;
69185;SDS011;56298;49.246;9.410;2024-02-16T01:35:28;9.10;;;3.03;;
69185;SDS011;56298;49.246;9.410;2024-02-16T01:37:53;8.87;;;3.20;;
69185;SDS011;56298;49.246;9.410;2024-02-16T01:40:18;8.33;;;3.43;;
69185;SDS011;56298;49.246;9.410;2024-02-16T01:42:44;8.53;;;3.17;;
69185;SDS011;56298;49.246;9.410;2024-02-16T01:45:10;8.20;;;3.23;;
69185;SDS011;56298;49.246;9.410;2024-02-16T01:47:37;7.63;;;3.13;;
69185;SDS011;56298;49.246;9.410;2024-02-16T01:50:03;8.50;;;3.17;;
69185;SDS011;56298;49.246;9.410;2024-02-16T01:52:30;9.97;;;3.47;;
69185;SDS011;56298;49.246;9.410;2024-02-16T01:54:57;7.32;;;3.22;;
69185;SDS011;56298;49.246;9.410;2024-02-16T01:57:22;10.00;;;3.53;;
69185;SDS011;56298;49.246;9.410;2024-02-16T01:59:48;7.15;;;3.33;;
69185;SDS011;56298;49.246;9.410;2024-02-16T02:02:14;7.70;;;3.23;;
69185;SDS011;56298;49.246;9.410;2024-02-16T02:04:39;8.27;;;3.20;;
69185;SDS011;56298;49.246;9.410;2024-02-16T02:07:14;9.37;;;3.10;;
69185;SDS011;56298;49.246;9.410;2024-02-16T02:09:40;7.53;;;3.15;;
69185;SDS011;56298;49.246;9.410;2024-02-16T02:12:05;9.50;;;3.40;;
69185;SDS011;56298;49.246;9.410;2024-02-16T02:14:31;8.03;;;3.27;;
69185;SDS011;56298;49.246;9.410;2024-02-16T02:16:56;8.00;;;3.50;;
69185;SDS011;56298;49.246;9.410;2024-02-16T02:19:21;9.43;;;3.57;;
69185;SDS011;56298;49.246;9.410;2024-02-16T02:21:46;7.33;;;3.13;;
69185;SDS011;56298;49.246;9.410;2024-02-16T02:24:12;8.80;;;3.27;;
69185;SDS011;56298;49.246;9.410;2024-02-16T02:26:37;7.50;;;3.10;;
69185;SDS011;56298;49.246;9.410;2024-02-16T02:29:03;7.28;;;3.30;;
69185;SDS011;56298;49.246;9.410;2024-02-16T02:31:29;7.72;;;3.50;;
69185;SDS011;56298;49.246;9.410;2024-02-16T02:33:55;7.45;;;3.15;;
69185;SDS011;56298;49.246;9.410;2024-02-16T02:36:20;9.20;;;3.50;;
69185;SDS011;56298;49.246;9.410;2024-02-16T02:38:46;7.40;;;2.90;;
69185;SDS011;56298;49.246;9.410;2024-02-16T02:41:12;8.20;;;3.13;;
69185;SDS011;56298;49.246;9.410;2024-02-16T02:43:37;7.57;;;3.10;;
69185;SDS011;56298;49.246;9.410;2024-02-16T02:46:02;6.40;;;2.97;;
69185;SDS011;56298;49.246;9.410;2024-02-16T02:48:27;7.33;;;3.30;;
69185;SDS011;56298;49.246;9.410;2024-02-16T02:50:53;8.82;;;3.10;;
69185;SDS011;56298;49.246;9.410;2024-02-16T02:53:18;8.40;;;3.15;;
69185;SDS011;56298;49.246;9.410;2024-02-16T02:55:43;7.63;;;3.38;;
69185;SDS011;56298;49.246;9.410;2024-02-16T02:58:09;8.53;;;3.10;;
69185;SDS011;56298;49.246;9.410;2024-02-16T03:00:34;7.20;;;3.10;;
69185;SDS011;56298;49.246;9.410;2024-02-16T03:03:00;7.82;;;3.20;;
69185;SDS011;56298;49.246;9.410;2024-02-16T03:05:26;7.55;;;3.20;;
69185;SDS011;56298;49.246;9.410;2024-02-16T03:07:51;8.50;;;3.00;;
69185;SDS011;56298;49.246;9.410;2024-02-16T03:10:17;7.60;;;3.03;;
69185;SDS011;56298;49.246;9.410;2024-02-16T03:12:46;8.38;;;3.10;;
69185;SDS011;56298;49.246;9.410;2024-02-16T03:15:14;7.45;;;2.85;;
69185;SDS011;56298;49.246;9.410;2024-02-16T03:17:39;7.93;;;3.10;;
69185;SDS011;56298;49.246;9.410;2024-02-16T03:20:04;8.23;;;3.03;;
69185;SDS011;56298;49.246;9.410;2024-02-16T03:22:30;8.00;;;3.10;;
69185;SDS011;56298;49.246;9.410;2024-02-16T03:24:55;7.50;;;3.10;;
69185;SDS011;56298;49.246;9.410;2024-02-16T03:27:21;7.77;;;3.30;;
69185;SDS011;56298;49.246;9.410;2024-02-16T03:29:46;8.83;;;3.20;;
69185;SDS011;56298;49.246;9.410;2024-02-16T03:32:12;7.27;;;3.40;;
69185;SDS011;56298;49.246;9.410;2024-02-16T03:34:38;6.88;;;2.95;;
69185;SDS011;56298;49.246;9.410;2024-02-16T03:37:03;7.83;;;2.80;;
69185;SDS011;56298;49.246;9.410;2024-02-16T03:39:29;7.10;;;3.40;;
69185;SDS011;56298;49.246;9.410;2024-02-16T03:41:54;8.10;;;3.00;;
69185;SDS011;56298;49.246;9.410;2024-02-16T03:44:19;6.73;;;3.00;;
69185;SDS011;56298;49.246;9.410;2024-02-16T03:46:45;8.23;;;3.03;;
69185;SDS011;56298;49.246;9.410;2024-02-16T03:49:10;7.47;;;3.03;;
69185;SDS011;56298;49.246;9.410;2024-02-16T03:51:35;8.10;;;3.20;;
69185;SDS011;56298;49.246;9.410;2024-02-16T03:54:02;9.30;;;3.10;;
69185;SDS011;56298;49.246;9.410;2024-02-16T03:56:29;8.85;;;2.97;;
69185;SDS011;56298;49.246;9.410;2024-02-16T03:58:54;7.87;;;3.10;;
69185;SDS011;56298;49.246;9.410;2024-02-16T04:01:19;8.07;;;3.20;;
69185;SDS011;56298;49.246;9.410;2024-02-16T04:03:45;10.27;;;3.10;;
69185;SDS011;56298;49.246;9.410;2024-02-16T04:06:10;7.83;;;2.90;;
69185;SDS011;56298;49.246;9.410;2024-02-16T04:08:35;7.27;;;3.33;;
69185;SDS011;56298;49.246;9.410;2024-02-16T04:11:00;7.28;;;3.13;;
69185;SDS011;56298;49.246;9.410;2024-02-16T04:13:26;7.93;;;3.30;;
69185;SDS011;56298;49.246;9.410;2024-02-16T04:15:51;8.57;;;3.07;;
69185;SDS011;56298;49.246;9.410;2024-02-16T04:18:16;6.93;;;2.93;;
69185;SDS011;56298;49.246;9.410;2024-02-16T04:20:43;8.60;;;2.97;;
69185;SDS011;56298;49.246;9.410;2024-02-16T04:23:08;7.50;;;2.95;;
69185;SDS011;56298;49.246;9.410;2024-02-16T04:25:34;8.67;;;3.13;;
69185;SDS011;56298;49.246;9.410;2024-02-16T04:27:59;7.23;;;2.80;;
69185;SDS011;56298;49.246;9.410;2024-02-16T04:30:24;8.23;;;3.30;;
69185;SDS011;56298;49.246;9.410;2024-02-16T04:32:49;6.10;;;2.90;;
69185;SDS011;56298;49.246;9.410;2024-02-16T04:35:15;5.93;;;2.70;;
69185;SDS011;56298;49.246;9.410;2024-02-16T04:37:40;7.82;;;2.95;;
69185;SDS011;56298;49.246;9.410;2024-02-16T04:40:06;8.73;;;3.10;;
69185;SDS011;56298;49.246;9.410;2024-02-16T04:42:32;6.97;;;3.30;;
69185;SDS011;56298;49.246;9.410;2024-02-16T04:44:58;7.33;;;3.00;;
69185;SDS011;56298;49.246;9.410;2024-02-16T04:47:25;7.67;;;2.97;;
69185;SDS011;56298;49.246;9.410;2024-02-16T04:49:50;7.78;;;3.30;;
69185;SDS011;56298;49.246;9.410;2024-02-16T04:52:16;6.47;;;2.93;;
69185;SDS011;56298;49.246;9.410;2024-02-16T04:54:41;7.43;;;2.97;;
69185;SDS011;56298;49.246;9.410;2024-02-16T04:57:06;6.30;;;2.87;;
69185;SDS011;56298;49.246;9.410;2024-02-16T04:59:32;8.65;;;3.25;;
69185;SDS011;56298;49.246;9.410;2024-02-16T05:01:57;8.17;;;3.47;;
69185;SDS011;56298;49.246;9.410;2024-02-16T05:04:22;6.60;;;3.03;;
69185;SDS011;56298;49.246;9.410;2024-02-16T05:06:48;7.07;;;3.20;;
69185;SDS011;56298;49.246;9.410;2024-02-16T05:09:14;7.13;;;3.23;;
69185;SDS011;56298;49.246;9.410;2024-02-16T05:11:42;8.07;;;3.03;;
69185;SDS011;56298;49.246;9.410;2024-02-16T05:14:09;7.55;;;3.28;;
69185;SDS011;56298;49.246;9.410;2024-02-16T05:16:37;8.10;;;3.20;;
69185;SDS011;56298;49.246;9.410;2024-02-16T05:19:02;5.27;;;2.90;;
69185;SDS011;56298;49.246;9.410;2024-02-16T05:21:28;7.78;;;3.03;;
69185;SDS011;56298;49.246;9.410;2024-02-16T05:23:53;9.47;;;3.33;;
69185;SDS011;56298;49.246;9.410;2024-02-16T05:26:18;8.43;;;3.20;;
69185;SDS011;56298;49.246;9.410;2024-02-16T05:28:43;7.40;;;3.23;;
69185;SDS011;56298;49.246;9.410;2024-02-16T05:31:16;9.17;;;3.33;;
69185;SDS011;56298;49.246;9.410;2024-02-16T05:33:52;7.32;;;3.22;;
69185;SDS011;56298;49.246;9.410;2024-02-16T05:36:21;9.63;;;3.42;;
69185;SDS011;56298;49.246;9.410;2024-02-16T05:38:49;7.95;;;3.17;;
69185;SDS011;56298;49.246;9.410;2024-02-16T05:41:15;9.10;;;3.15;;
69185;SDS011;56298;49.246;9.410;2024-02-16T05:43:42;174.33;;;64.53;;
69185;SDS011;56298;49.246;9.410;2024-02-16T05:46:12;203.00;;;71.03;;
69185;SDS011;56298;49.246;9.410;2024-02-16T05:48:40;214.85;;;69.07;;
69185;SDS011;56298;49.246;9.410;2024-02-16T05:51:06;95.10;;;31.55;;
69185;SDS011;56298;49.246;9.410;2024-02-16T05:53:32;22.45;;;7.90;;
69185;SDS011;56298;49.246;9.410;2024-02-16T05:55:58;19.08;;;7.50;;
69185;SDS011;56298;49.246;9.410;2024-02-16T05:58:24;12.38;;;5.50;;
69185;SDS011;56298;49.246;9.410;2024-02-16T06:00:49;8.10;;;4.07;;
69185;SDS011;56298;49.246;9.410;2024-02-16T06:03:15;13.43;;;5.30;;
69185;SDS011;56298;49.246;9.410;2024-02-16T06:05:40;9.30;;;3.45;;
69185;SDS011;56298;49.246;9.410;2024-02-16T06:08:09;7.67;;;3.80;;
69185;SDS011;56298;49.246;9.410;2024-02-16T06:10:35;8.02;;;3.42;;
69185;SDS011;56298;49.246;9.410;2024-02-16T06:13:00;10.93;;;4.03;;
69185;SDS011;56298;49.246;9.410;2024-02-16T06:15:25;7.83;;;3.73;;
69185;SDS011;56298;49.246;9.410;2024-02-16T06:17:51;8.43;;;3.20;;
69185;SDS011;56298;49.246;9.410;2024-02-16T06:20:16;8.93;;;3.33;;
69185;SDS011;56298;49.246;9.410;2024-02-16T06:22:42;8.43;;;3.80;;
69185;SDS011;56298;49.246;9.410;2024-02-16T06:25:08;8.50;;;3.73;;
69185;SDS011;56298;49.246;9.410;2024-02-16T06:27:33;8.43;;;3.78;;
69185;SDS011;56298;49.246;9.410;2024-02-16T06:29:59;8.43;;;3.83;;
69185;SDS011;56298;49.246;9.410;2024-02-16T06:32:24;11.07;;;4.30;;
69185;SDS011;56298;49.246;9.410;2024-02-16T06:34:51;8.67;;;4.27;;
69185;SDS011;56298;49.246;9.410;2024-02-16T06:37:17;11.20;;;4.00;;
69185;SDS011;56298;49.246;9.410;2024-02-16T06:39:43;9.63;;;4.23;;
69185;SDS011;56298;49.246;9.410;2024-02-16T06:42:08;10.63;;;4.30;;
69185;SDS011;56298;49.246;9.410;2024-02-16T06:44:33;10.27;;;3.90;;
69185;SDS011;56298;49.246;9.410;2024-02-16T06:46:58;8.80;;;4.20;;
69185;SDS011;56298;49.246;9.410;2024-02-16T06:49:24;10.67;;;4.33;;
69185;SDS011;56298;49.246;9.410;2024-02-16T06:51:49;11.40;;;5.27;;
69185;SDS011;56298;49.246;9.410;2024-02-16T06:54:14;13.50;;;5.37;;
69185;SDS011;56298;49.246;9.410;2024-02-16T06:56:40;11.67;;;5.17;;
69185;SDS011;56298;49.246;9.410;2024-02-16T06:59:05;10.57;;;5.07;;
69185;SDS011;56298;49.246;9.410;2024-02-16T07:01:30;10.47;;;4.70;;
69185;SDS011;56298;49.246;9.410;2024-02-16T07:03:56;9.37;;;4.07;;
69185;SDS011;56298;49.246;9.410;2024-02-16T07:06:21;8.10;;;3.60;;
69185;SDS011;56298;49.246;9.410;2024-02-16T07:08:46;8.07;;;3.55;;
69185;SDS011;56298;49.246;9.410;2024-02-16T07:11:12;10.57;;;4.15;;
69185;SDS011;56298;49.246;9.410;2024-02-16T07:13:38;8.23;;;3.50;;
69185;SDS011;56298;49.246;9.410;2024-02-16T07:19:26;8.98;;;3.53;;
69185;SDS011;56298;49.246;9.410;2024-02-16T07:21:51;10.97;;;3.50;;
69185;SDS011;56298;49.246;9.410;2024-02-16T07:24:17;7.63;;;3.42;;
69185;SDS011;56298;49.246;9.410;2024-02-16T07:26:43;8.23;;;3.40;;
69185;SDS011;56298;49.246;9.410;2024-02-16T07:29:08;10.03;;;3.50;;
69185;SDS011;56298;49.246;9.410;2024-02-16T07:31:33;7.73;;;3.23;;
69185;SDS011;56298;49.246;9.410;2024-02-16T07:33:59;32.22;;;12.45;;
69185;SDS011;56298;49.246;9.410;2024-02-16T07:36:25;55.45;;;20.55;;
69185;SDS011;56298;49.246;9.410;2024-02-16T07:38:51;39.35;;;14.20;;
69185;SDS011;56298;49.246;9.410;2024-02-16T07:41:16;24.93;;;10.30;;
69185;SDS011;56298;49.246;9.410;2024-02-16T07:43:41;30.33;;;12.07;;
69185;SDS011;56298;49.246;9.410;2024-02-16T07:46:07;28.20;;;10.50;;
69185;SDS011;56298;49.246;9.410;2024-02-16T07:48:33;10.57;;;4.25;;
69185;SDS011;56298;49.246;9.410;2024-02-16T07:50:59;22.02;;;8.40;;
69185;SDS011;56298;49.246;9.410;2024-02-16T07:53:27;19.38;;;7.28;;
69185;SDS011;56298;49.246;9.410;2024-02-16T07:55:53;19.17;;;7.75;;
69185;SDS011;56298;49.246;9.410;2024-02-16T07:58:18;12.57;;;4.67;;
69185;SDS011;56298;49.246;9.410;2024-02-16T08:00:44;11.40;;;5.10;;
69185;SDS011;56298;49.246;9.410;2024-02-16T08:03:09;12.57;;;5.00;;
69185;SDS011;56298;49.246;9.410;2024-02-16T08:05:34;16.47;;;7.00;;
69185;SDS011;56298;49.246;9.410;2024-02-16T08:08:00;29.15;;;13.63;;
69185;SDS011;56298;49.246;9.410;2024-02-16T08:10:25;30.97;;;10.97;;
69185;SDS011;56298;49.246;9.410;2024-02-16T08:12:51;9.77;;;3.73;;
69185;SDS011;56298;49.246;9.410;2024-02-16T08:15:17;15.68;;;5.43;;
69185;SDS011;56298;49.246;9.410;2024-02-16T08:17:47;9.77;;;3.70;;
69185;SDS011;56298;49.246;9.410;2024-02-16T08:20:13;11.17;;;5.00;;
69185;SDS011;56298;49.246;9.410;2024-02-16T08:22:39;8.10;;;3.50;;
69185;SDS011;56298;49.246;9.410;2024-02-16T08:25:05;11.37;;;4.77;;
69185;SDS011;56298;49.246;9.410;2024-02-16T08:27:31;8.90;;;4.13;;
69185;SDS011;56298;49.246;9.410;2024-02-16T08:29:57;9.50;;;4.18;;
69185;SDS011;56298;49.246;9.410;2024-02-16T08:32:22;6.17;;;3.13;;
69185;SDS011;56298;49.246;9.410;2024-02-16T08:34:48;8.03;;;3.60;;
69185;SDS011;56298;49.246;9.410;2024-02-16T08:37:13;7.23;;;3.10;;
69185;SDS011;56298;49.246;9.410;2024-02-16T08:39:39;7.00;;;3.05;;
69185;SDS011;56298;49.246;9.410;2024-02-16T08:42:06;7.68;;;3.42;;
69185;SDS011;56298;49.246;9.410;2024-02-16T08:44:33;7.18;;;2.90;;
69185;SDS011;56298;49.246;9.410;2024-02-16T08:46:59;7.20;;;3.33;;
69185;SDS011;56298;49.246;9.410;2024-02-16T08:49:24;7.57;;;3.03;;
69185;SDS011;56298;49.246;9.410;2024-02-16T08:51:50;7.50;;;3.50;;
69185;SDS011;56298;49.246;9.410;2024-02-16T08:54:15;8.17;;;3.53;;
69185;SDS011;56298;49.246;9.410;2024-02-16T08:56:43;7.22;;;3.05;;
69185;SDS011;56298;49.246;9.410;2024-02-16T08:59:08;6.90;;;2.93;;
69185;SDS011;56298;49.246;9.410;2024-02-16T09:01:52;8.47;;;3.53;;
69185;SDS011;56298;49.246;9.410;2024-02-16T09:04:23;6.35;;;3.00;;
69185;SDS011;56298;49.246;9.410;2024-02-16T09:06:48;7.18;;;2.90;;
69185;SDS011;56298;49.246;9.410;2024-02-16T09:09:15;6.35;;;3.13;;
69185;SDS011;56298;49.246;9.410;2024-02-16T09:11:41;6.43;;;3.10;;
69185;SDS011;56298;49.246;9.410;2024-02-16T09:14:06;8.07;;;3.03;;
69185;SDS011;56298;49.246;9.410;2024-02-16T09:16:31;6.23;;;2.90;;
69185;SDS011;56298;49.246;9.410;2024-02-16T09:18:57;6.37;;;2.77;;
69185;SDS011;56298;49.246;9.410;2024-02-16T09:21:23;5.80;;;3.00;;
69185;SDS011;56298;49.246;9.410;2024-02-16T09:23:51;8.55;;;3.33;;
69185;SDS011;56298;49.246;9.410;2024-02-16T09:26:17;6.60;;;2.97;;
69185;SDS011;56298;49.246;9.410;2024-02-16T09:28:43;6.80;;;3.30;;
69185;SDS011;56298;49.246;9.410;2024-02-16T09:31:08;8.25;;;3.20;;
69185;SDS011;56298;49.246;9.410;2024-02-16T09:33:34;6.47;;;3.33;;
69185;SDS011;56298;49.246;9.410;2024-02-16T09:36:02;6.50;;;3.10;;
69185;SDS011;56298;49.246;9.410;2024-02-16T09:38:29;8.07;;;3.35;;
69185;SDS011;56298;49.246;9.410;2024-02-16T09:40:55;6.73;;;3.07;;
69185;SDS011;56298;49.246;9.410;2024-02-16T09:43:24;7.17;;;3.57;;
69185;SDS011;56298;49.246;9.410;2024-02-16T09:45:54;7.63;;;3.53;;
69185;SDS011;56298;49.246;9.410;2024-02-16T09:48:24;6.50;;;3.40;;
69185;SDS011;56298;49.246;9.410;2024-02-16T09:50:55;7.70;;;3.70;;
69185;SDS011;56298;49.246;9.410;2024-02-16T09:53:23;7.72;;;3.60;;
69185;SDS011;56298;49.246;9.410;2024-02-16T09:55:55;7.97;;;4.70;;
69185;SDS011;56298;49.246;9.410;2024-02-16T09:58:20;9.55;;;4.20;;
69185;SDS011;56298;49.246;9.410;2024-02-16T10:00:52;7.63;;;3.80;;
69185;SDS011;56298;49.246;9.410;2024-02-16T10:03:23;10.68;;;4.63;;
69185;SDS011;56298;49.246;9.410;2024-02-16T10:05:52;8.88;;;4.15;;
69185;SDS011;56298;49.246;9.410;2024-02-16T10:08:28;8.85;;;4.05;;
69185;SDS011;56298;49.246;9.410;2024-02-16T10:11:00;8.10;;;3.80;;
69185;SDS011;56298;49.246;9.410;2024-02-16T10:13:28;8.90;;;4.70;;
69185;SDS011;56298;49.246;9.410;2024-02-16T10:16:03;7.80;;;3.88;;
69185;SDS011;56298;49.246;9.410;2024-02-16T10:18:34;8.20;;;3.90;;
69185;SDS011;56298;49.246;9.410;2024-02-16T10:21:00;8.80;;;4.32;;
69185;SDS011;56298;49.246;9.410;2024-02-16T10:23:25;10.80;;;4.03;;
69185;SDS011;56298;49.246;9.410;2024-02-16T10:25:51;8.33;;;3.90;;
69185;SDS011;56298;49.246;9.410;2024-02-16T10:28:16;7.40;;;3.53;;
69185;SDS011;56298;49.246;9.410;2024-02-16T10:30:43;9.02;;;3.50;;
69185;SDS011;56298;49.246;9.410;2024-02-16T10:33:09;8.23;;;3.72;;
69185;SDS011;56298;49.246;9.410;2024-02-16T10:35:35;9.57;;;3.83;;
69185;SDS011;56298;49.246;9.410;2024-02-16T10:38:01;8.80;;;4.00;;
69185;SDS011;56298;49.246;9.410;2024-02-16T10:40:32;9.00;;;3.83;;
69185;SDS011;56298;49.246;9.410;2024-02-16T10:43:00;9.00;;;4.43;;
69185;SDS011;56298;49.246;9.410;2024-02-16T10:45:28;7.47;;;3.67;;
69185;SDS011;56298;49.246;9.410;2024-02-16T10:47:54;8.95;;;4.00;;
69185;SDS011;56298;49.246;9.410;2024-02-16T10:50:20;8.37;;;3.87;;
69185;SDS011;56298;49.246;9.410;2024-02-16T10:52:45;9.03;;;4.30;;
69185;SDS011;56298;49.246;9.410;2024-02-16T10:55:12;9.02;;;4.32;;
69185;SDS011;56298;49.246;9.410;2024-02-16T10:57:38;7.53;;;3.88;;
69185;SDS011;56298;49.246;9.410;2024-02-16T11:00:08;8.10;;;3.95;;
69185;SDS011;56298;49.246;9.410;2024-02-16T11:02:56;8.57;;;4.40;;
69185;SDS011;56298;49.246;9.410;2024-02-16T11:05:36;8.40;;;3.90;;
69185;SDS011;56298;49.246;9.410;2024-02-16T11:08:14;10.63;;;4.40;;
69185;SDS011;56298;49.246;9.410;2024-02-16T11:10:40;7.55;;;4.45;;
69185;SDS011;56298;49.246;9.410;2024-02-16T11:13:05;11.73;;;4.60;;
69185;SDS011;56298;49.246;9.410;2024-02-16T11:15:31;10.03;;;4.80;;
69185;SDS011;56298;49.246;9.410;2024-02-16T11:17:58;9.50;;;4.55;;
69185;SDS011;56298;49.246;9.410;2024-02-16T11:20:25;8.52;;;4.50;;
69185;SDS011;56298;49.246;9.410;2024-02-16T11:22:51;8.97;;;4.30;;
69185;SDS011;56298;49.246;9.410;2024-02-16T11:25:17;8.38;;;4.75;;
69185;SDS011;56298;49.246;9.410;2024-02-16T11:27:42;9.43;;;4.43;;
69185;SDS011;56298;49.246;9.410;2024-02-16T11:30:10;9.85;;;4.60;;
69185;SDS011;56298;49.246;9.410;2024-02-16T11:32:35;10.13;;;4.70;;
69185;SDS011;56298;49.246;9.410;2024-02-16T11:35:05;10.80;;;4.50;;
69185;SDS011;56298;49.246;9.410;2024-02-16T11:37:31;8.52;;;4.68;;
69185;SDS011;56298;49.246;9.410;2024-02-16T11:39:57;10.80;;;4.80;;
69185;SDS011;56298;49.246;9.410;2024-02-16T11:42:22;9.40;;;4.53;;
69185;SDS011;56298;49.246;9.410;2024-02-16T11:44:54;9.10;;;4.70;;
69185;SDS011;56298;49.246;9.410;2024-02-16T11:47:24;9.88;;;4.78;;
69185;SDS011;56298;49.246;9.410;2024-02-16T11:50:00;9.57;;;4.55;;
69185;SDS011;56298;49.246;9.410;2024-02-16T11:52:28;9.57;;;4.55;;
69185;SDS011;56298;49.246;9.410;2024-02-16T11:54:54;9.00;;;4.77;;
69185;SDS011;56298;49.246;9.410;2024-02-16T11:57:19;9.57;;;4.77;;
69185;SDS011;56298;49.246;9.410;2024-02-16T11:59:45;7.77;;;4.67;;
69185;SDS011;56298;49.246;9.410;2024-02-16T12:02:16;11.15;;;5.00;;
69185;SDS011;56298;49.246;9.410;2024-02-16T12:04:43;9.23;;;4.50;;
69185;SDS011;56298;49.246;9.410;2024-02-16T12:07:12;12.13;;;4.55;;
69185;SDS011;56298;49.246;9.410;2024-02-16T12:09:37;10.00;;;4.50;;
69185;SDS011;56298;49.246;9.410;2024-02-16T12:12:03;8.00;;;4.53;;
69185;SDS011;56298;49.246;9.410;2024-02-16T12:14:30;9.23;;;4.70;;
69185;SDS011;56298;49.246;9.410;2024-02-16T12:16:56;9.53;;;4.57;;
69185;SDS011;56298;49.246;9.410;2024-02-16T12:19:22;9.80;;;4.88;;
69185;SDS011;56298;49.246;9.410;2024-02-16T12:21:51;11.07;;;4.50;;
69185;SDS011;56298;49.246;9.410;2024-02-16T12:24:18;8.73;;;4.23;;
69185;SDS011;56298;49.246;9.410;2024-02-16T12:26:44;8.55;;;4.40;;
69185;SDS011;56298;49.246;9.410;2024-02-16T12:29:09;8.13;;;3.70;;
69185;SDS011;56298;49.246;9.410;2024-02-16T12:31:37;8.40;;;3.65;;
69185;SDS011;56298;49.246;9.410;2024-02-16T12:34:05;7.35;;;3.60;;
69185;SDS011;56298;49.246;9.410;2024-02-16T12:36:32;7.63;;;3.67;;
69185;SDS011;56298;49.246;9.410;2024-02-16T12:38:58;9.77;;;3.78;;
69185;SDS011;56298;49.246;9.410;2024-02-16T12:41:23;9.27;;;3.53;;
69185;SDS011;56298;49.246;9.410;2024-02-16T12:43:48;8.13;;;3.70;;
69185;SDS011;56298;49.246;9.410;2024-02-16T12:46:14;8.60;;;3.90;;
69185;SDS011;56298;49.246;9.410;2024-02-16T12:48:39;8.63;;;3.70;;
69185;SDS011;56298;49.246;9.410;2024-02-16T12:51:04;11.50;;;4.37;;
69185;SDS011;56298;49.246;9.410;2024-02-16T12:53:30;8.17;;;3.60;;
69185;SDS011;56298;49.246;9.410;2024-02-16T12:56:05;8.70;;;2.90;;
69185;SDS011;56298;49.246;9.410;2024-02-16T12:58:31;7.88;;;2.72;;
69185;SDS011;56298;49.246;9.410;2024-02-16T13:00:57;9.20;;;2.50;;
69185;SDS011;56298;49.246;9.410;2024-02-16T13:03:22;6.97;;;2.40;;
69185;SDS011;56298;49.246;9.410;2024-02-16T13:05:47;8.90;;;2.67;;
69185;SDS011;56298;49.246;9.410;2024-02-16T13:08:12;7.90;;;2.50;;
69185;SDS011;56298;49.246;9.410;2024-02-16T13:10:38;6.93;;;2.43;;
69185;SDS011;56298;49.246;9.410;2024-02-16T13:13:03;7.40;;;2.40;;
69185;SDS011;56298;49.246;9.410;2024-02-16T13:15:29;8.33;;;2.40;;
69185;SDS011;56298;49.246;9.410;2024-02-16T13:17:54;6.87;;;2.40;;
69185;SDS011;56298;49.246;9.410;2024-02-16T13:20:19;9.07;;;2.47;;
69185;SDS011;56298;49.246;9.410;2024-02-16T13:22:44;7.23;;;2.43;;
69185;SDS011;56298;49.246;9.410;2024-02-16T13:25:10;8.37;;;2.80;;
69185;SDS011;56298;49.246;9.410;2024-02-16T13:27:35;7.77;;;2.50;;
69185;SDS011;56298;49.246;9.410;2024-02-16T13:30:00;8.97;;;2.67;;
69185;SDS011;56298;49.246;9.410;2024-02-16T13:32:26;8.07;;;2.97;;
69185;SDS011;56298;49.246;9.410;2024-02-16T13:34:51;7.57;;;2.58;;
69185;SDS011;56298;49.246;9.410;2024-02-16T13:37:17;7.30;;;2.67;;
69185;SDS011;56298;49.246;9.410;2024-02-16T13:39:42;6.63;;;2.30;;
69185;SDS011;56298;49.246;9.410;2024-02-16T13:42:07;8.20;;;2.27;;
69185;SDS011;56298;49.246;9.410;2024-02-16T13:44:33;7.20;;;2.30;;
69185;SDS011;56298;49.246;9.410;2024-02-16T13:47:00;7.13;;;2.28;;
69185;SDS011;56298;49.246;9.410;2024-02-16T13:49:25;6.90;;;2.40;;
69185;SDS011;56298;49.246;9.410;2024-02-16T13:51:50;7.13;;;2.23;;
69185;SDS011;56298;49.246;9.410;2024-02-16T13:54:15;7.13;;;2.50;;
69185;SDS011;56298;49.246;9.410;2024-02-16T13:56:42;7.53;;;2.30;;
69185;SDS011;56298;49.246;9.410;2024-02-16T13:59:07;7.45;;;2.15;;
69185;SDS011;56298;49.246;9.410;2024-02-16T14:01:33;7.50;;;2.20;;
69185;SDS011;56298;49.246;9.410;2024-02-16T14:03:59;9.05;;;2.55;;
69185;SDS011;56298;49.246;9.410;2024-02-16T14:06:25;7.67;;;2.40;;
69185;SDS011;56298;49.246;9.410;2024-02-16T14:08:50;8.40;;;2.50;;
69185;SDS011;56298;49.246;9.410;2024-02-16T14:11:17;8.38;;;2.50;;
69185;SDS011;56298;49.246;9.410;2024-02-16T14:13:43;9.87;;;2.57;;
69185;SDS011;56298;49.246;9.410;2024-02-16T14:16:09;9.60;;;3.00;;
69185;SDS011;56298;49.246;9.410;2024-02-16T14:18:35;10.83;;;2.40;;
69185;SDS011;56298;49.246;9.410;2024-02-16T14:21:01;7.15;;;2.20;;
69185;SDS011;56298;49.246;9.410;2024-02-16T14:23:26;7.07;;;2.70;;
69185;SDS011;56298;49.246;9.410;2024-02-16T14:25:51;9.13;;;2.50;;
69185;SDS011;56298;49.246;9.410;2024-02-16T14:28:17;7.83;;;2.63;;
69185;SDS011;56298;49.246;9.410;2024-02-16T14:30:42;9.60;;;2.80;;
69185;SDS011;56298;49.246;9.410;2024-02-16T14:33:07;8.17;;;3.03;;
69185;SDS011;56298;49.246;9.410;2024-02-16T14:35:33;7.53;;;2.90;;
69185;SDS011;56298;49.246;9.410;2024-02-16T14:38:01;8.43;;;2.92;;
69185;SDS011;56298;49.246;9.410;2024-02-16T14:40:26;8.03;;;2.80;;
69185;SDS011;56298;49.246;9.410;2024-02-16T14:42:52;8.37;;;2.60;;